Weather at Traben-Trarbach/Mont Royal Airfield

Public forecast

Using degrees Celsius for public forecast. Weather courtesy of forecast.io.

Closest aviation weather report (METAR) to Traben-Trarbach/Mont Royal Airfield

Closest report is Frankfurt-Hahn Airport, 6.0 nm (11.1 km) E.

2024/06/20 11:50 (retrieved 33 minutes ago)

EDFH 201150Z 14011KT 9999 SCT011 18/15 Q1019

Closest aviation forecast (TAF) to Traben-Trarbach/Mont Royal Airfield

Closest forecast is Frankfurt-Hahn Airport, 6.0 nm (11.1 km) E.

2024/06/20 12:27 (retrieved 0 seconds ago)

TAF EDFH 201100Z 2012/2112 12007KT CAVOK TEMPO 2014/2102 SHRA SCT025CB PROB40 TEMPO 2014/2020 23015G30KT 4000 TSRA BKN008 BKN030CB PROB40 TEMPO 2022/2106 TSRA BKN008 BKN020CB BECMG 2022/2024 20006KT TEMPO 2102/2109 2000 BR BKN004 TEMPO 2110/2112 22015G25KT SHRA BKN008CB